Time;durP1;ratioP1;P1;durP2;ratioP2;P2;SDS_P1;SDS_P2;PMS_P1;PMS_P2;Temp;Humidity;BMP_temperature;BMP_pressure;BME280_temperature;BME280_humidity;BME280_pressure;Samples;Min_cycle;Max_cycle;Signal;HPM_P1;HPM_P2
2021/09/09 00:00:14;;;;;;;9.40;7.18;;;16.20;99.90;;;;;;4912365;29;20035;-84
2021/09/09 00:02:41;;;;;;;9.23;7.20;;;16.20;99.90;;;;;;4912035;29;20064;-84
2021/09/09 00:05:08;;;;;;;8.52;6.93;;;16.10;99.90;;;;;;4927706;29;20060;-84
2021/09/09 00:07:35;;;;;;;8.90;7.10;;;16.10;99.90;;;;;;4928525;29;20066;-84
2021/09/09 00:10:03;;;;;;;9.57;7.38;;;16.10;99.90;;;;;;4931257;29;20111;-84
2021/09/09 00:12:29;;;;;;;12.27;7.70;;;16.10;99.90;;;;;;4946709;29;20032;-83
2021/09/09 00:14:56;;;;;;;11.30;7.53;;;16.10;99.90;;;;;;4946528;29;20034;-84
2021/09/09 00:17:22;;;;;;;9.40;6.97;;;16.00;99.90;;;;;;4930578;29;20058;-84
2021/09/09 00:19:48;;;;;;;12.40;8.43;;;15.90;99.90;;;;;;4930850;29;20262;-83
2021/09/09 00:22:18;;;;;;;13.18;7.63;;;15.90;99.90;;;;;;4931412;29;20175;-84
2021/09/09 00:24:43;;;;;;;9.77;7.50;;;15.80;99.90;;;;;;4930545;29;20040;-84
2021/09/09 00:27:11;;;;;;;9.88;7.03;;;15.80;99.90;;;;;;4930927;29;20047;-84
2021/09/09 00:29:38;;;;;;;9.20;7.03;;;15.80;99.90;;;;;;4930370;29;20028;-85
2021/09/09 00:32:04;;;;;;;10.25;7.47;;;15.80;99.90;;;;;;4932006;29;20119;-84
2021/09/09 00:34:31;;;;;;;10.30;7.65;;;15.80;99.90;;;;;;4930261;29;20028;-84
2021/09/09 00:36:57;;;;;;;9.07;6.93;;;15.70;99.90;;;;;;4930574;29;20039;-84
2021/09/09 00:39:22;;;;;;;10.52;7.25;;;15.60;99.90;;;;;;4930351;29;20024;-85
2021/09/09 00:41:48;;;;;;;9.73;7.45;;;15.60;99.90;;;;;;4929890;29;20084;-83
2021/09/09 00:44:21;;;;;;;12.40;8.60;;;15.60;99.90;;;;;;4930304;29;20051;-84
2021/09/09 00:47:01;;;;;;;9.90;7.70;;;15.60;99.90;;;;;;4930215;29;20063;-84
2021/09/09 00:49:27;;;;;;;10.95;7.47;;;15.60;99.90;;;;;;4931232;29;20044;-85
2021/09/09 00:51:53;;;;;;;11.38;7.15;;;15.50;99.90;;;;;;4931460;29;20070;-84
2021/09/09 00:54:20;;;;;;;9.80;7.10;;;15.50;99.90;;;;;;4930367;29;20088;-84
2021/09/09 00:56:45;;;;;;;11.43;7.65;;;15.50;99.90;;;;;;4946085;29;20039;-84
2021/09/09 00:59:11;;;;;;;9.27;7.15;;;15.50;99.90;;;;;;4929978;29;20036;-84
2021/09/09 01:01:37;;;;;;;10.43;7.25;;;15.50;99.90;;;;;;4930007;29;20051;-83
2021/09/09 01:04:03;;;;;;;11.60;7.63;;;15.50;99.90;;;;;;4945700;29;20036;-84
2021/09/09 01:06:28;;;;;;;10.20;7.43;;;15.50;99.90;;;;;;4929948;29;20048;-83
2021/09/09 01:08:54;;;;;;;11.30;8.13;;;15.60;99.90;;;;;;4929774;29;20095;-84
2021/09/09 01:11:20;;;;;;;9.65;7.47;;;15.60;99.90;;;;;;4914054;29;20107;-83
2021/09/09 01:13:50;;;;;;;14.23;8.40;;;15.60;99.90;;;;;;4929802;29;20064;-84
2021/09/09 01:16:15;;;;;;;9.23;6.47;;;15.50;99.90;;;;;;4930925;29;20402;-84
2021/09/09 01:18:41;;;;;;;10.70;8.32;;;15.40;99.90;;;;;;4926321;29;20044;-83
2021/09/09 01:21:06;;;;;;;12.05;8.05;;;15.40;99.90;;;;;;4926635;29;20477;-84
2021/09/09 01:23:33;;;;;;;10.50;7.85;;;15.40;99.90;;;;;;4911708;29;20033;-84
2021/09/09 01:25:59;;;;;;;12.50;8.68;;;15.20;99.90;;;;;;4926433;29;20036;-83
2021/09/09 01:28:25;;;;;;;9.20;7.22;;;15.20;99.90;;;;;;4911673;29;20057;-84
2021/09/09 01:30:50;;;;;;;11.20;7.57;;;15.20;99.90;;;;;;4926213;29;20029;-84
2021/09/09 01:33:16;;;;;;;12.50;8.55;;;15.30;99.90;;;;;;4926362;29;20039;-84
2021/09/09 01:35:42;;;;;;;12.25;8.20;;;15.10;99.90;;;;;;4926048;29;20061;-84
2021/09/09 01:38:21;;;;;;;9.98;7.97;;;15.10;99.90;;;;;;4926154;29;20036;-84
2021/09/09 01:40:47;;;;;;;10.07;7.63;;;15.20;99.90;;;;;;4910179;29;20434;-84
2021/09/09 01:43:13;;;;;;;13.38;8.27;;;15.30;99.90;;;;;;4910460;29;20089;-84
2021/09/09 01:45:39;;;;;;;9.63;7.45;;;15.30;99.90;;;;;;4926023;29;20065;-84
2021/09/09 01:48:04;;;;;;;11.43;8.50;;;15.10;99.90;;;;;;4925849;29;20053;-84
2021/09/09 01:50:30;;;;;;;12.10;8.88;;;15.10;99.90;;;;;;4926185;29;20033;-83
2021/09/09 01:52:56;;;;;;;11.02;8.38;;;15.00;99.90;;;;;;4925301;29;20040;-84
2021/09/09 01:55:21;;;;;;;10.95;7.72;;;14.90;99.90;;;;;;4925442;29;20056;-83
2021/09/09 01:57:47;;;;;;;11.43;8.63;;;14.90;99.90;;;;;;4925917;29;20420;-84
2021/09/09 02:00:13;;;;;;;9.82;7.40;;;14.90;99.90;;;;;;4925815;29;20032;-83
2021/09/09 02:02:43;;;;;;;10.82;7.70;;;15.00;99.90;;;;;;4925875;29;20029;-82
2021/09/09 02:05:10;;;;;;;11.60;8.10;;;14.90;99.90;;;;;;4925737;29;20493;-84
2021/09/09 02:07:35;;;;;;;13.10;9.00;;;14.70;99.90;;;;;;4911024;29;20044;-83
2021/09/09 02:10:01;;;;;;;10.73;7.75;;;14.80;99.90;;;;;;4928721;29;20052;-83
2021/09/09 02:12:27;;;;;;;10.50;8.23;;;14.70;99.90;;;;;;4928776;29;20036;-84
2021/09/09 02:14:52;;;;;;;11.27;8.02;;;14.80;99.90;;;;;;4928839;29;20024;-83
2021/09/09 02:17:18;;;;;;;12.27;8.75;;;14.70;99.90;;;;;;4928725;29;20043;-84
2021/09/09 02:19:43;;;;;;;9.90;7.53;;;14.60;99.90;;;;;;4928720;29;20122;-83
2021/09/09 02:22:09;;;;;;;11.40;7.78;;;14.70;99.90;;;;;;4944802;29;20063;-84
2021/09/09 02:24:36;;;;;;;11.40;8.25;;;14.60;99.90;;;;;;4928372;29;20035;-84
2021/09/09 02:27:01;;;;;;;11.98;7.72;;;14.60;99.90;;;;;;4928498;29;20125;-84
2021/09/09 02:29:27;;;;;;;13.48;8.20;;;14.50;99.90;;;;;;4928502;29;20032;-84
2021/09/09 02:31:53;;;;;;;12.40;8.63;;;14.60;99.90;;;;;;4944479;29;20064;-84
2021/09/09 02:34:18;;;;;;;12.75;8.70;;;14.50;99.90;;;;;;4945438;29;20092;-83
2021/09/09 02:36:44;;;;;;;11.38;7.90;;;14.50;99.90;;;;;;4928516;29;20032;-84
2021/09/09 02:39:09;;;;;;;10.60;8.85;;;14.50;99.90;;;;;;4928396;29;20039;-84
2021/09/09 02:41:35;;;;;;;11.48;7.85;;;14.50;99.90;;;;;;4928305;29;20024;-84
2021/09/09 02:44:00;;;;;;;14.07;8.60;;;14.50;99.90;;;;;;4944134;29;20040;-84
2021/09/09 02:46:26;;;;;;;11.18;8.13;;;14.40;99.90;;;;;;4928040;29;20064;-83
2021/09/09 02:48:52;;;;;;;10.98;8.50;;;14.40;99.90;;;;;;4928007;29;20051;-84
2021/09/09 02:51:18;;;;;;;11.65;9.15;;;14.40;99.90;;;;;;4943935;29;20036;-84
2021/09/09 02:53:43;;;;;;;10.73;8.02;;;14.30;99.90;;;;;;4927975;29;20040;-84
2021/09/09 02:56:09;;;;;;;14.13;7.82;;;14.40;99.90;;;;;;4943754;29;20031;-84
2021/09/09 02:58:35;;;;;;;13.60;8.50;;;14.30;99.90;;;;;;4928031;29;20292;-84
2021/09/09 03:01:00;;;;;;;9.65;7.22;;;14.20;99.90;;;;;;4927915;29;20083;-84
2021/09/09 03:03:26;;;;;;;12.60;8.48;;;14.20;99.90;;;;;;4943725;29;20119;-84
2021/09/09 03:05:52;;;;;;;12.43;9.20;;;14.20;99.90;;;;;;4927614;29;20032;-84
2021/09/09 03:08:17;;;;;;;12.68;8.65;;;14.20;99.90;;;;;;4927680;29;20079;-84
2021/09/09 03:10:43;;;;;;;11.25;8.55;;;14.10;99.90;;;;;;4927746;29;20043;-84
2021/09/09 03:13:08;;;;;;;14.18;8.68;;;14.10;99.90;;;;;;4912108;29;20032;-83
2021/09/09 03:15:34;;;;;;;10.98;8.25;;;14.00;99.90;;;;;;4927624;29;20028;-84
2021/09/09 03:18:00;;;;;;;12.35;9.13;;;14.10;99.90;;;;;;4940511;29;20056;-83
2021/09/09 03:20:25;;;;;;;10.20;7.70;;;14.00;99.90;;;;;;4924532;29;20033;-83
2021/09/09 03:22:51;;;;;;;13.43;8.77;;;14.00;99.90;;;;;;4909154;29;20032;-83
2021/09/09 03:25:17;;;;;;;11.65;8.75;;;13.90;99.90;;;;;;4924650;29;20033;-84
2021/09/09 03:27:42;;;;;;;12.70;9.13;;;13.80;99.90;;;;;;4924348;29;20096;-83
2021/09/09 03:30:10;;;;;;;12.40;8.93;;;13.80;99.90;;;;;;4924847;29;20033;-84
2021/09/09 03:32:35;;;;;;;11.55;8.48;;;13.90;99.90;;;;;;4924414;29;20087;-83
2021/09/09 03:35:01;;;;;;;15.18;9.07;;;13.90;99.90;;;;;;4924540;29;20415;-84
2021/09/09 03:37:27;;;;;;;11.85;8.93;;;13.80;99.90;;;;;;4924503;29;20071;-83
2021/09/09 03:39:53;;;;;;;12.38;9.32;;;13.70;99.90;;;;;;4924375;29;20025;-84
2021/09/09 03:42:18;;;;;;;13.25;8.93;;;13.70;99.90;;;;;;4924192;29;20043;-84
2021/09/09 03:44:44;;;;;;;14.98;10.30;;;13.60;99.90;;;;;;4924657;29;20092;-84
2021/09/09 03:47:10;;;;;;;12.27;9.10;;;13.70;99.90;;;;;;4923924;29;20056;-83
2021/09/09 03:49:36;;;;;;;11.85;9.40;;;13.60;99.90;;;;;;4924488;29;20040;-84
2021/09/09 03:52:03;;;;;;;11.70;9.32;;;13.60;99.90;;;;;;4924298;29;20077;-84
2021/09/09 03:54:28;;;;;;;14.52;8.35;;;13.60;99.90;;;;;;4924361;29;20100;-84
2021/09/09 03:56:54;;;;;;;11.77;8.55;;;13.60;99.90;;;;;;4908641;29;20061;-84
2021/09/09 03:59:20;;;;;;;13.88;9.25;;;13.50;99.90;;;;;;4908569;29;20033;-83
2021/09/09 04:01:45;;;;;;;12.13;9.20;;;13.50;99.90;;;;;;4924473;29;20029;-83
2021/09/09 04:04:11;;;;;;;13.82;9.07;;;13.50;99.90;;;;;;4924283;29;20033;-84
2021/09/09 04:06:36;;;;;;;14.13;11.02;;;13.50;99.90;;;;;;4924134;29;20494;-84
2021/09/09 04:09:02;;;;;;;13.57;9.32;;;13.50;99.90;;;;;;4936893;29;20043;-83
2021/09/09 04:11:28;;;;;;;11.27;9.20;;;13.50;99.90;;;;;;4942876;29;20040;-85
2021/09/09 04:13:53;;;;;;;14.00;9.13;;;13.50;99.90;;;;;;4925092;29;20084;-84
2021/09/09 04:16:19;;;;;;;16.65;9.93;;;13.50;99.90;;;;;;4911486;29;20035;-85
2021/09/09 04:18:45;;;;;;;12.27;9.32;;;13.40;99.90;;;;;;4915053;29;20047;-85
2021/09/09 04:21:10;;;;;;;13.45;10.02;;;13.40;99.90;;;;;;4930952;29;20064;-85
2021/09/09 04:23:46;;;;;;;13.23;9.98;;;13.40;99.90;;;;;;4946569;29;20032;-85
2021/09/09 04:26:12;;;;;;;14.98;10.50;;;13.30;99.90;;;;;;4930813;29;20039;-85
2021/09/09 04:28:37;;;;;;;12.90;9.27;;;13.30;99.90;;;;;;4930172;29;20040;-85
2021/09/09 04:31:03;;;;;;;13.65;9.40;;;13.40;99.90;;;;;;4930533;29;20096;-84
2021/09/09 04:33:28;;;;;;;14.73;9.50;;;13.30;99.90;;;;;;4945655;29;20600;-85
2021/09/09 04:35:54;;;;;;;14.02;9.20;;;13.30;99.90;;;;;;4929924;29;20051;-85
2021/09/09 04:38:20;;;;;;;11.88;9.20;;;13.40;99.90;;;;;;4945635;29;20020;-85
2021/09/09 04:40:45;;;;;;;12.52;9.13;;;13.40;99.90;;;;;;4929988;29;20036;-85
2021/09/09 04:43:11;;;;;;;14.32;10.38;;;13.30;99.90;;;;;;4946215;29;20123;-85
2021/09/09 04:45:36;;;;;;;11.75;8.82;;;13.20;99.90;;;;;;4930539;29;20032;-85
2021/09/09 04:48:02;;;;;;;13.55;9.50;;;13.30;99.90;;;;;;4945788;29;20063;-85
2021/09/09 04:50:28;;;;;;;15.18;9.77;;;13.30;99.90;;;;;;4946263;29;20060;-85
2021/09/09 04:52:53;;;;;;;12.18;9.23;;;13.20;99.90;;;;;;4930254;29;20040;-85
2021/09/09 04:55:19;;;;;;;12.95;9.60;;;13.30;99.90;;;;;;4946333;29;20480;-85
2021/09/09 04:57:45;;;;;;;13.43;9.90;;;13.30;99.90;;;;;;4945999;29;20108;-85
2021/09/09 05:00:11;;;;;;;12.90;9.43;;;13.30;99.90;;;;;;4946181;29;20033;-85
2021/09/09 05:02:36;;;;;;;13.52;9.10;;;13.30;99.90;;;;;;4946025;29;20572;-85
2021/09/09 05:05:03;;;;;;;14.93;10.18;;;13.30;99.90;;;;;;4946017;29;20032;-85
2021/09/09 05:07:28;;;;;;;15.98;8.88;;;13.40;99.90;;;;;;4945693;29;20052;-85
2021/09/09 05:09:54;;;;;;;13.35;9.82;;;13.40;99.90;;;;;;4925575;29;20032;-85
2021/09/09 05:12:19;;;;;;;13.45;10.15;;;13.30;99.90;;;;;;4945905;29;20043;-85
2021/09/09 05:14:45;;;;;;;16.42;10.60;;;13.30;99.90;;;;;;4945392;29;20072;-85
2021/09/09 05:17:11;;;;;;;13.25;9.02;;;13.30;99.90;;;;;;4944807;29;20040;-85
2021/09/09 05:19:36;;;;;;;11.43;9.55;;;13.30;99.90;;;;;;4944007;29;20111;-85
2021/09/09 05:22:02;;;;;;;12.52;9.95;;;13.30;99.90;;;;;;4944437;29;20160;-85
2021/09/09 05:24:28;;;;;;;14.35;9.68;;;13.30;99.90;;;;;;4928596;29;20123;-85
2021/09/09 05:26:53;;;;;;;13.52;10.13;;;13.30;99.90;;;;;;4928766;29;20051;-85
2021/09/09 05:29:22;;;;;;;17.23;10.45;;;13.30;99.90;;;;;;4928826;29;20032;-85
2021/09/09 05:31:48;;;;;;;14.65;11.10;;;13.30;99.90;;;;;;4928950;29;20095;-84
2021/09/09 05:34:14;;;;;;;15.68;9.80;;;13.30;99.90;;;;;;4929191;29;20100;-85
2021/09/09 05:36:39;;;;;;;13.40;10.32;;;13.30;99.90;;;;;;4928943;29;20039;-85
2021/09/09 05:39:05;;;;;;;14.52;9.77;;;13.40;99.90;;;;;;4928938;29;20040;-85
2021/09/09 05:41:31;;;;;;;16.25;10.18;;;13.40;99.90;;;;;;4928861;29;20197;-85
2021/09/09 05:43:56;;;;;;;16.40;10.50;;;13.40;99.90;;;;;;4928430;29;20036;-85
2021/09/09 05:49:16;;;;;;;16.17;9.43;;;13.50;99.90;;;;;;4966499;29;20066;-85
2021/09/09 05:51:42;;;;;;;13.32;10.23;;;13.50;99.90;;;;;;4965687;28;20043;-85
2021/09/09 05:54:08;;;;;;;13.23;10.18;;;13.50;99.90;;;;;;4983026;28;20039;-84
2021/09/09 05:56:33;;;;;;;14.48;10.18;;;13.60;99.90;;;;;;4978840;28;20073;-84
2021/09/09 05:59:00;;;;;;;14.82;9.90;;;13.60;99.90;;;;;;4950889;28;20042;-85
2021/09/09 06:01:28;;;;;;;14.15;9.10;;;13.80;99.90;;;;;;4950831;28;20090;-84
2021/09/09 06:03:55;;;;;;;14.48;10.32;;;13.80;99.90;;;;;;4967080;29;20098;-85
2021/09/09 06:06:22;;;;;;;16.42;10.63;;;13.90;99.90;;;;;;4966802;29;20042;-85
2021/09/09 06:08:47;;;;;;;13.38;9.43;;;14.00;99.90;;;;;;4947583;28;20576;-85
2021/09/09 06:11:13;;;;;;;13.00;9.52;;;14.10;99.90;;;;;;4946329;29;20035;-84
2021/09/09 06:13:38;;;;;;;16.35;10.23;;;14.20;99.90;;;;;;4966597;28;20387;-82
2021/09/09 06:16:05;;;;;;;12.93;10.35;;;14.30;99.90;;;;;;4950308;29;20037;-84
2021/09/09 06:18:31;;;;;;;14.82;9.60;;;14.40;99.90;;;;;;4963872;28;20039;-84
2021/09/09 06:20:58;;;;;;;15.60;9.90;;;14.40;99.90;;;;;;4981767;28;20062;-84
2021/09/09 06:23:24;;;;;;;15.85;10.38;;;14.70;99.90;;;;;;4966484;28;20039;-85
2021/09/09 06:25:51;;;;;;;13.95;9.88;;;14.80;99.90;;;;;;4966425;29;20042;-83
2021/09/09 06:28:16;;;;;;;14.85;10.00;;;14.90;99.90;;;;;;4967348;28;20039;-85
2021/09/09 06:30:42;;;;;;;15.30;9.93;;;15.00;99.90;;;;;;4950206;28;20171;-84
2021/09/09 06:33:08;;;;;;;13.63;8.93;;;15.10;99.90;;;;;;4966245;29;20035;-84
2021/09/09 06:35:33;;;;;;;12.00;9.55;;;15.30;99.90;;;;;;4949896;29;20034;-84
2021/09/09 06:37:59;;;;;;;14.95;9.43;;;15.50;99.90;;;;;;4965631;28;20032;-84
2021/09/09 06:40:25;;;;;;;12.48;10.10;;;15.70;99.90;;;;;;4981408;28;20058;-84
2021/09/09 06:42:50;;;;;;;15.50;10.43;;;15.90;99.90;;;;;;4949996;28;20027;-84
2021/09/09 06:45:16;;;;;;;13.63;11.00;;;16.00;99.90;;;;;;4966008;28;20039;-84
2021/09/09 06:47:42;;;;;;;17.23;11.55;;;16.20;99.90;;;;;;4949333;28;20054;-84
2021/09/09 06:50:08;;;;;;;14.60;11.25;;;16.40;99.90;;;;;;4949882;28;20400;-84
2021/09/09 06:52:34;;;;;;;13.50;10.13;;;16.60;99.90;;;;;;4949802;28;20075;-83
2021/09/09 06:55:00;;;;;;;13.90;10.05;;;16.70;99.90;;;;;;4965468;28;20027;-83
2021/09/09 06:57:25;;;;;;;13.23;10.50;;;16.80;99.90;;;;;;4949760;28;20039;-83
2021/09/09 06:59:51;;;;;;;14.10;10.32;;;16.90;99.90;;;;;;4949596;28;20058;-84
2021/09/09 07:02:17;;;;;;;14.73;10.43;;;17.10;99.90;;;;;;4949379;29;20050;-84
2021/09/09 07:04:43;;;;;;;13.23;9.50;;;17.30;99.90;;;;;;4949669;28;20040;-84
2021/09/09 07:07:08;;;;;;;14.40;9.95;;;17.50;99.90;;;;;;4965552;28;20039;-84
2021/09/09 07:09:34;;;;;;;14.43;9.60;;;17.60;99.90;;;;;;4964730;28;20031;-84
2021/09/09 07:12:00;;;;;;;11.60;9.88;;;17.70;99.90;;;;;;4962416;29;20043;-84
2021/09/09 07:14:26;;;;;;;12.77;10.85;;;17.80;99.90;;;;;;4946257;29;20119;-84
2021/09/09 07:16:52;;;;;;;14.32;9.43;;;17.90;99.90;;;;;;4930613;28;20047;-84
2021/09/09 07:19:17;;;;;;;15.90;10.73;;;18.00;99.90;;;;;;4968764;28;20388;-84
2021/09/09 07:21:49;;;;;;;13.80;9.95;;;18.20;99.90;;;;;;4984640;28;20676;-83
2021/09/09 07:24:17;;;;;;;11.80;9.00;;;18.30;99.90;;;;;;4985562;28;20031;-82
2021/09/09 07:26:43;;;;;;;13.10;9.32;;;18.60;99.90;;;;;;4984509;28;20047;-83
2021/09/09 07:29:08;;;;;;;14.00;9.57;;;18.70;99.90;;;;;;4984506;28;20030;-83
2021/09/09 07:31:34;;;;;;;12.35;9.80;;;18.90;99.90;;;;;;4984441;28;20039;-83
2021/09/09 07:33:59;;;;;;;13.05;9.32;;;19.00;99.90;;;;;;4984611;28;20042;-84
2021/09/09 07:36:25;;;;;;;10.52;8.55;;;19.20;99.90;;;;;;4984423;28;20058;-84
2021/09/09 07:38:51;;;;;;;12.45;9.80;;;19.40;99.90;;;;;;4984586;28;20026;-83
2021/09/09 07:41:18;;;;;;;13.57;9.60;;;19.40;99.90;;;;;;4984548;28;20035;-84
2021/09/09 07:43:43;;;;;;;11.93;9.18;;;19.50;99.90;;;;;;4984425;28;20074;-83
2021/09/09 07:46:09;;;;;;;9.85;8.25;;;19.70;99.90;;;;;;4984223;28;20062;-84
2021/09/09 07:48:35;;;;;;;10.20;8.75;;;19.80;99.90;;;;;;4984117;28;20065;-83
2021/09/09 07:51:00;;;;;;;14.82;12.10;;;19.90;99.90;;;;;;4984381;28;20103;-84
2021/09/09 07:53:26;;;;;;;13.20;10.05;;;19.90;99.90;;;;;;4987593;28;20059;-84
2021/09/09 07:55:51;;;;;;;13.60;9.50;;;20.00;99.90;;;;;;4988178;28;20027;-83
2021/09/09 07:58:17;;;;;;;10.35;8.70;;;20.10;99.90;;;;;;4988125;28;20549;-84
2021/09/09 08:00:43;;;;;;;11.18;8.27;;;20.50;99.90;;;;;;4987976;28;20057;-84
2021/09/09 08:03:08;;;;;;;11.65;9.80;;;20.60;99.90;;;;;;4987806;28;20447;-84
2021/09/09 08:05:34;;;;;;;11.55;8.93;;;20.70;99.90;;;;;;4987888;28;20062;-83
2021/09/09 08:07:59;;;;;;;11.80;8.77;;;20.70;99.90;;;;;;4983374;28;20431;-83
2021/09/09 08:10:25;;;;;;;11.82;9.55;;;20.80;99.90;;;;;;4968521;29;20074;-83
2021/09/09 08:12:51;;;;;;;9.50;8.13;;;21.00;99.90;;;;;;4968395;29;20039;-84
2021/09/09 08:15:17;;;;;;;10.35;8.40;;;21.10;99.90;;;;;;4970042;28;20031;-84
2021/09/09 08:17:43;;;;;;;10.38;8.77;;;21.10;99.90;;;;;;4972053;28;20183;-84
2021/09/09 08:20:10;;;;;;;11.32;8.23;;;21.30;99.90;;;;;;4961118;28;20066;-84
2021/09/09 08:22:36;;;;;;;10.63;7.72;;;21.50;99.90;;;;;;4947274;29;20103;-84
2021/09/09 08:25:03;;;;;;;10.27;7.95;;;21.70;99.90;;;;;;4965006;28;20028;-84
2021/09/09 08:27:30;;;;;;;9.32;7.55;;;21.90;99.90;;;;;;4948598;29;20044;-84
2021/09/09 08:29:57;;;;;;;10.40;7.38;;;22.10;99.90;;;;;;4948394;29;20028;-84
2021/09/09 08:32:24;;;;;;;9.60;7.80;;;22.20;99.90;;;;;;4948702;29;20039;-84
2021/09/09 08:34:54;;;;;;;10.30;7.78;;;22.20;99.90;;;;;;4948986;29;20036;-84
2021/09/09 08:37:20;;;;;;;9.30;6.90;;;22.20;99.90;;;;;;4948791;29;20103;-84
2021/09/09 08:39:45;;;;;;;9.48;6.63;;;22.30;99.90;;;;;;4964891;29;20043;-83
2021/09/09 08:42:15;;;;;;;9.00;6.40;;;22.50;99.90;;;;;;4948537;29;20066;-83
2021/09/09 08:44:41;;;;;;;10.32;7.80;;;22.70;99.90;;;;;;4948820;29;20047;-84
2021/09/09 08:47:09;;;;;;;8.48;7.25;;;22.50;99.90;;;;;;4948231;29;20644;-84
2021/09/09 08:49:34;;;;;;;11.32;8.60;;;22.70;99.90;;;;;;4948904;29;20031;-84
2021/09/09 08:52:00;;;;;;;9.40;7.65;;;22.70;99.90;;;;;;4948578;29;20452;-84
2021/09/09 08:54:26;;;;;;;7.88;6.38;;;22.70;99.90;;;;;;4964609;28;20036;-84
2021/09/09 08:56:53;;;;;;;7.63;6.80;;;23.00;99.90;;;;;;4948542;29;20039;-84
2021/09/09 08:59:18;;;;;;;9.68;7.32;;;23.40;99.90;;;;;;4948487;29;20039;-84
2021/09/09 09:02:17;;;;;;;10.80;6.63;;;23.40;99.90;;;;;;4948293;29;20067;-84
2021/09/09 09:05:08;;;;;;;12.07;6.37;;;23.60;99.90;;;;;;4911523;29;20050;-84
2021/09/09 09:07:35;;;;;;;8.00;5.78;;;23.50;99.90;;;;;;4965001;28;20846;-84
2021/09/09 09:10:07;;;;;;;7.88;6.65;;;23.50;99.90;;;;;;4967568;29;20082;-85
2021/09/09 09:12:44;;;;;;;9.40;6.05;;;23.60;99.90;;;;;;4967466;29;20036;-84
2021/09/09 09:15:22;;;;;;;6.97;5.35;;;23.80;99.90;;;;;;4967627;29;20033;-84
2021/09/09 09:18:08;;;;;;;9.55;6.85;;;23.90;99.90;;;;;;4975995;28;20068;-84
2021/09/09 09:20:43;;;;;;;7.88;5.57;;;23.90;99.90;;;;;;4986641;28;20026;-83
2021/09/09 09:23:24;;;;;;;6.93;4.97;;;24.20;99.90;;;;;;4987849;28;20035;-84
2021/09/09 09:25:59;;;;;;;7.13;5.82;;;24.20;99.90;;;;;;4986657;28;20284;-84
2021/09/09 09:28:49;;;;;;;7.75;6.22;;;24.20;99.90;;;;;;4986694;28;20517;-84
2021/09/09 09:31:18;;;;;;;6.60;5.47;;;24.40;99.90;;;;;;4987886;28;20027;-84
2021/09/09 09:33:47;;;;;;;7.55;5.82;;;24.70;99.90;;;;;;4986141;28;20073;-84
2021/09/09 09:36:37;;;;;;;7.88;6.50;;;24.60;99.90;;;;;;4970497;28;20027;-84
2021/09/09 09:39:10;;;;;;;7.97;6.50;;;24.60;99.90;;;;;;4986382;28;20041;-84
2021/09/09 09:41:38;;;;;;;5.78;5.18;;;24.50;99.90;;;;;;4986507;28;20034;-84
2021/09/09 09:44:07;;;;;;;6.95;5.43;;;24.70;99.90;;;;;;4986211;28;20109;-84
2021/09/09 09:46:39;;;;;;;4.90;4.13;;;25.10;99.90;;;;;;4985966;28;20043;-83
2021/09/09 09:49:27;;;;;;;5.93;4.35;;;25.30;99.90;;;;;;4985899;28;20077;-83
2021/09/09 09:51:59;;;;;;;9.63;5.38;;;25.60;99.90;;;;;;4985749;28;20039;-84
2021/09/09 09:54:25;;;;;;;6.47;4.80;;;25.50;99.90;;;;;;4986238;28;20042;-85
2021/09/09 09:56:52;;;;;;;5.78;4.45;;;25.60;99.90;;;;;;4985882;28;20038;-84
2021/09/09 09:59:18;;;;;;;7.05;4.60;;;25.70;99.90;;;;;;4985919;28;20035;-84
2021/09/09 10:01:45;;;;;;;6.07;4.47;;;25.60;99.90;;;;;;4985981;28;20041;-83
2021/09/09 10:04:15;;;;;;;6.15;4.22;;;25.60;99.90;;;;;;4987197;28;20034;-84
2021/09/09 10:06:44;;;;;;;7.43;5.10;;;25.50;99.90;;;;;;4985664;28;20106;-83
2021/09/09 10:09:10;;;;;;;5.40;4.55;;;25.50;99.90;;;;;;4971985;28;20060;-84
2021/09/09 10:11:37;;;;;;;7.13;4.63;;;25.50;99.90;;;;;;4950562;29;20119;-83
2021/09/09 10:14:04;;;;;;;5.60;4.57;;;25.50;99.90;;;;;;4982063;28;20023;-84
2021/09/09 10:16:42;;;;;;;6.85;4.70;;;25.70;99.90;;;;;;4965854;29;20045;-84
2021/09/09 10:19:12;;;;;;;5.85;4.30;;;25.60;99.90;;;;;;4984451;28;20119;-84
2021/09/09 10:21:46;;;;;;;4.75;3.85;;;26.00;99.90;;;;;;4986869;28;20097;-84
2021/09/09 10:24:29;;;;;;;5.45;4.03;;;25.90;99.90;;;;;;4985651;28;20034;-83
2021/09/09 10:27:17;;;;;;;6.05;4.18;;;25.60;99.90;;;;;;4985656;28;20043;-83
2021/09/09 10:29:59;;;;;;;5.78;3.63;;;25.40;99.90;;;;;;4969327;28;20031;-83
2021/09/09 10:32:31;;;;;;;3.63;3.33;;;25.90;99.90;;;;;;4985370;28;20041;-84
2021/09/09 10:35:22;;;;;;;4.32;3.10;;;26.40;99.90;;;;;;4985216;28;20031;-83
2021/09/09 10:37:47;;;;;;;5.45;3.75;;;26.70;99.90;;;;;;4985168;28;20034;-84
2021/09/09 10:40:28;;;;;;;4.32;3.50;;;26.40;99.90;;;;;;4985402;28;20038;-83
2021/09/09 10:42:55;;;;;;;4.88;3.92;;;26.60;99.90;;;;;;4985105;28;20038;-84
2021/09/09 10:45:37;;;;;;;4.78;3.28;;;26.70;99.90;;;;;;4985468;28;20094;-84
2021/09/09 10:48:24;;;;;;;6.03;4.07;;;26.90;99.90;;;;;;4984737;28;20065;-83
2021/09/09 10:51:09;;;;;;;4.85;3.97;;;26.90;99.90;;;;;;4984851;28;20319;-84
2021/09/09 10:53:36;;;;;;;4.35;3.80;;;26.90;99.90;;;;;;4985059;28;20038;-84
2021/09/09 10:56:35;;;;;;;3.67;2.80;;;27.30;99.90;;;;;;4984767;28;20027;-83
2021/09/09 10:59:07;;;;;;;;;;;27.60;99.90;;;;;;4965164;28;20045;-83
2021/09/09 11:01:33;;;;;;;4.28;3.88;;;27.10;99.90;;;;;;4984793;28;19910;-83
2021/09/09 11:03:59;;;;;;;4.13;3.25;;;27.20;99.90;;;;;;4984838;28;20034;-83
2021/09/09 11:06:25;;;;;;;5.03;3.88;;;27.40;99.90;;;;;;4983342;28;20031;-83
2021/09/09 11:08:57;;;;;;;8.20;3.33;;;27.90;99.90;;;;;;4973413;28;20475;-83
2021/09/09 11:11:28;;;;;;;6.97;4.80;;;27.90;99.90;;;;;;4965516;29;20044;-83
2021/09/09 11:14:08;;;;;;;6.28;4.38;;;26.80;99.90;;;;;;4965394;29;20039;-82
2021/09/09 11:16:36;;;;;;;4.38;3.80;;;26.60;99.90;;;;;;4965371;29;20082;-83
2021/09/09 11:19:04;;;;;;;4.50;3.70;;;26.90;99.90;;;;;;4982571;28;20030;-83
2021/09/09 11:21:35;;;;;;;3.97;3.50;;;27.20;99.90;;;;;;4984196;28;20027;-83
2021/09/09 11:24:06;;;;;;;5.05;3.90;;;27.50;99.90;;;;;;4984569;28;20039;-83
2021/09/09 11:26:33;;;;;;;4.68;4.03;;;27.80;99.90;;;;;;4987750;28;20455;-84
2021/09/09 11:28:59;;;;;;;4.70;3.67;;;27.50;99.90;;;;;;4988488;28;20034;-83
2021/09/09 11:31:27;;;;;;;6.75;4.10;;;27.50;99.90;;;;;;4988530;28;20027;-84
2021/09/09 11:34:01;;;;;;;7.20;4.00;;;27.90;99.90;;;;;;4988464;28;20031;-83
2021/09/09 11:36:37;;;;;;;4.80;3.40;;;28.30;99.90;;;;;;4972435;28;20158;-83
2021/09/09 11:39:14;;;;;;;3.85;3.33;;;28.10;99.90;;;;;;4988247;28;20035;-83
2021/09/09 11:41:41;;;;;;;4.93;2.92;;;28.50;99.90;;;;;;4988263;28;20102;-84
2021/09/09 11:44:09;;;;;;;5.00;3.58;;;28.20;99.90;;;;;;4988424;28;20076;-83
2021/09/09 11:46:41;;;;;;;3.95;3.05;;;28.00;99.90;;;;;;4987811;28;20049;-83
2021/09/09 11:49:09;;;;;;;5.97;5.38;;;27.80;99.90;;;;;;4988004;28;20396;-84
2021/09/09 11:51:49;;;;;;;5.65;4.28;;;27.30;99.90;;;;;;4987685;28;20031;-83
2021/09/09 11:54:24;;;;;;;6.32;4.75;;;28.00;99.90;;;;;;4987918;28;20495;-83
2021/09/09 11:56:50;;;;;;;6.53;5.05;;;28.00;99.90;;;;;;4988115;28;20033;-83
2021/09/09 11:59:18;;;;;;;7.60;5.45;;;28.10;99.90;;;;;;4987721;28;20031;-82
2021/09/09 12:01:49;;;;;;;6.03;5.03;;;27.70;99.90;;;;;;4989019;28;20062;-82
2021/09/09 12:04:21;;;;;;;7.47;5.43;;;27.90;99.90;;;;;;5004116;28;20057;-82
2021/09/09 12:06:47;;;;;;;9.60;6.07;;;28.20;99.90;;;;;;4987627;28;20114;-82
2021/09/09 12:09:28;;;;;;;10.90;6.20;;;28.30;99.90;;;;;;4973953;28;20067;-83
2021/09/09 12:12:12;;;;;;;7.90;4.80;;;28.30;99.90;;;;;;4968804;29;20054;-83
2021/09/09 12:14:39;;;;;;;7.45;6.63;;;28.80;99.90;;;;;;4968326;29;20443;-85
2021/09/09 12:17:13;;;;;;;11.52;7.85;;;28.20;99.90;;;;;;4969860;28;20105;-83
2021/09/09 12:19:51;;;;;;;12.00;8.93;;;27.90;99.90;;;;;;4987112;28;20035;-85
2021/09/09 12:22:17;;;;;;;8.68;7.55;;;27.40;99.90;;;;;;4986930;28;20038;-84
2021/09/09 12:24:43;;;;;;;9.85;8.52;;;27.80;99.90;;;;;;4986676;28;20073;-83
2021/09/09 12:27:14;;;;;;;8.00;6.30;;;28.10;99.90;;;;;;4987033;28;20496;-85
2021/09/09 12:29:43;;;;;;;8.20;7.32;;;28.90;99.90;;;;;;4971185;28;20050;-85
2021/09/09 12:32:29;;;;;;;7.13;5.32;;;28.70;99.90;;;;;;4987345;28;20034;-85
2021/09/09 12:35:21;;;;;;;11.60;7.95;;;28.90;99.90;;;;;;4987394;28;20381;-85
2021/09/09 12:38:00;;;;;;;7.25;5.90;;;28.30;99.90;;;;;;4986280;28;20066;-84
2021/09/09 12:40:39;;;;;;;9.43;7.22;;;28.90;99.90;;;;;;4987266;28;20061;-83
2021/09/09 12:43:21;;;;;;;10.85;7.55;;;28.10;99.90;;;;;;4988520;28;20041;-83
2021/09/09 12:46:23;;;;;;;11.57;8.00;;;28.30;99.90;;;;;;4986938;28;20133;-82
2021/09/09 12:49:02;;;;;;;11.18;7.10;;;28.00;99.90;;;;;;4950449;29;20058;-83